La Fontana de Torrimar, Puerto Rico
Current Conditions -  °F | °C
As of 10:56 PM on Friday 21 Nov 2014 (Local Time) from TJSJ Reporting Station
Broken Clouds Broken Clouds  
Wind Chill: 77°   Ceiling: 9000
Heat Index: 78°   Visibility: 10mi
Dew Point: 75°   Wind: 3mph
Humidity: 94%   Direction: 110°ESE
Pressure: 30.03"   Gusts: NA
Location:  18.3885°N, 66.115°W
Report Text: TJSJ 220256Z 11003KT 10SM SCT023 SCT070 BKN090 25/24 A3003 RMK AO2 RAE38 SLP169 P0021 60026 T02500239 50003
Loading
Personal Weather Stations






























Interactive Weather Map New forecast layout! Learn more

10-Day Weather Forecast

Advertisements
Track Severe Weather on mobile